Time;durP1;ratioP1;P1;durP2;ratioP2;P2;SDS_P1;SDS_P2;PMS_P1;PMS_P2;Temp;Humidity;BMP_temperature;BMP_pressure;BME280_temperature;BME280_humidity;BME280_pressure;Samples;Min_cycle;Max_cycle;Signal;HPM_P1;HPM_P2
2022/05/28 00:00:59;;;;;;;3.62;2.22;;;;;;;17.29;72.55;151997.78;1733357;82;21004;-63
2022/05/28 00:03:28;;;;;;;5.85;2.15;;;;;;;17.32;72.39;152005.59;1737429;82;21110;-61
2022/05/28 00:05:56;;;;;;;4.30;2.30;;;;;;;17.30;72.13;152001.72;1733437;82;21072;-62
2022/05/28 00:08:24;;;;;;;4.78;2.10;;;;;;;17.29;72.21;151997.78;1733275;82;21469;-62
2022/05/28 00:10:52;;;;;;;3.80;2.20;;;;;;;17.31;71.93;152003.00;1733418;82;21201;-62
2022/05/28 00:13:19;;;;;;;3.08;2.00;;;;;;;17.28;71.86;151995.17;1737485;82;20956;-61
2022/05/28 00:15:46;;;;;;;4.22;2.20;;;;;;;17.27;71.81;151992.56;1733443;81;21022;-61
2022/05/28 00:18:13;;;;;;;3.00;1.90;;;;;;;17.24;71.86;151984.75;1737615;82;21443;-61
2022/05/28 00:20:40;;;;;;;3.90;2.08;;;;;;;17.23;71.89;151982.16;1733335;82;21054;-62
2022/05/28 00:23:07;;;;;;;4.95;1.90;;;;;;;17.23;71.85;151982.16;1737551;82;21325;-61
2022/05/28 00:25:34;;;;;;;2.08;1.75;;;;;;;17.22;71.76;151979.55;1733295;82;21047;-61
2022/05/28 00:28:03;;;;;;;4.90;2.30;;;;;;;17.20;71.90;151974.33;1737457;82;21003;-62
2022/05/28 00:30:31;;;;;;;5.45;2.02;;;;;;;17.18;71.79;151971.73;1733365;82;21587;-61
2022/05/28 00:32:58;;;;;;;3.05;2.05;;;;;;;17.16;71.96;151965.19;1737457;82;21575;-62
2022/05/28 00:35:25;;;;;;;3.47;2.27;;;;;;;17.13;71.97;151958.70;1733237;82;21922;-62
2022/05/28 00:37:52;;;;;;;5.28;2.22;;;;;;;17.09;72.05;151946.97;1733499;82;21020;-62
2022/05/28 00:40:23;;;;;;;3.02;2.20;;;;;;;17.02;72.25;151931.33;1737489;82;21051;-63
2022/05/28 00:42:50;;;;;;;3.62;2.37;;;;;;;17.01;72.35;151928.67;1733295;82;21053;-68
2022/05/28 00:45:18;;;;;;;3.85;2.27;;;;;;;16.96;72.49;151914.33;1733274;82;21457;-67
2022/05/28 00:47:52;;;;;;;3.62;2.27;;;;;;;16.94;72.81;151909.13;1741018;82;21287;-68
2022/05/28 00:50:19;;;;;;;6.22;2.02;;;;;;;16.90;72.93;151901.25;1740716;82;21082;-62
2022/05/28 00:52:46;;;;;;;3.92;2.35;;;;;;;16.88;73.15;151894.77;1741176;82;21464;-63
2022/05/28 00:55:14;;;;;;;3.00;2.15;;;;;;;16.85;73.30;151888.23;1740974;82;21569;-62
2022/05/28 00:57:41;;;;;;;5.55;2.37;;;;;;;16.82;73.47;151880.42;1741126;82;21047;-62
2022/05/28 01:00:13;;;;;;;10.15;2.40;;;;;;;16.76;73.60;151866.06;1740731;82;21295;-63
2022/05/28 01:02:54;;;;;;;3.15;2.20;;;;;;;16.69;73.89;151847.84;1741409;82;21476;-68
2022/05/28 01:05:44;;;;;;;3.27;2.25;;;;;;;16.64;74.25;151833.50;1740776;82;22068;-65
2022/05/28 01:08:47;;;;;;;2.72;2.10;;;;;;;16.64;74.47;151834.81;1741085;82;21087;-67
2022/05/28 01:11:42;;;;;;;3.00;2.37;;;;;;;16.60;74.80;151824.41;1700213;82;22178;-68
2022/05/28 01:14:34;;;;;;;5.42;2.25;;;;;;;16.60;74.82;151825.69;1773586;80;22265;-68
2022/05/28 01:17:13;;;;;;;5.78;2.70;;;;;;;16.55;74.97;151812.66;1771969;80;21045;-69
2022/05/28 01:20:04;;;;;;;7.30;2.40;;;;;;;16.53;75.21;151806.13;1773336;80;21067;-67
2022/05/28 01:22:58;;;;;;;4.03;2.12;;;;;;;16.49;75.44;151797.03;1742103;82;21021;-67
2022/05/28 01:25:36;;;;;;;4.42;2.20;;;;;;;16.46;75.69;151789.19;1773069;80;21015;-68
2022/05/28 01:28:05;;;;;;;3.70;2.37;;;;;;;16.41;76.01;151777.48;1741928;82;21328;-68
2022/05/28 01:30:32;;;;;;;2.77;2.30;;;;;;;16.46;76.23;151789.19;1772839;80;21338;-69
2022/05/28 01:33:00;;;;;;;3.20;2.22;;;;;;;16.47;76.11;151791.83;1741673;82;21091;-67
2022/05/28 01:35:29;;;;;;;4.17;2.30;;;;;;;16.43;76.27;151781.38;1773148;80;21027;-67
2022/05/28 01:37:56;;;;;;;4.15;2.60;;;;;;;16.43;76.36;151781.38;1773624;80;21097;-67
2022/05/28 01:40:24;;;;;;;2.75;2.35;;;;;;;16.39;76.41;151770.95;1773286;80;20948;-66
2022/05/28 01:42:53;;;;;;;5.97;2.30;;;;;;;16.35;76.72;151760.53;1773461;80;20955;-67
2022/05/28 01:45:25;;;;;;;5.85;2.55;;;;;;;16.32;76.78;151755.33;1773745;80;20995;-68
2022/05/28 01:47:52;;;;;;;3.15;2.47;;;;;;;16.30;77.10;151750.12;1768263;80;21026;-63
2022/05/28 01:50:22;;;;;;;4.00;2.45;;;;;;;16.30;77.12;151750.12;1768330;81;21055;-62
2022/05/28 01:52:49;;;;;;;3.98;2.10;;;;;;;16.28;77.21;151744.91;1768296;81;21425;-62
2022/05/28 01:55:17;;;;;;;5.80;2.20;;;;;;;16.23;77.50;151731.84;1768213;81;20999;-68
2022/05/28 01:57:45;;;;;;;4.58;2.42;;;;;;;16.20;77.66;151724.03;1767674;81;21110;-69
2022/05/28 02:00:14;;;;;;;5.62;2.70;;;;;;;16.20;77.97;151722.77;1768410;81;21067;-63
2022/05/28 02:02:42;;;;;;;3.75;2.40;;;;;;;16.23;78.20;151731.84;1768187;81;21072;-63
2022/05/28 02:05:09;;;;;;;4.53;2.27;;;;;;;16.26;78.02;151738.37;1737258;82;21455;-63
2022/05/28 02:07:37;;;;;;;4.25;2.45;;;;;;;16.26;78.23;151739.70;1735667;82;21429;-63
2022/05/28 02:10:11;;;;;;;4.12;2.30;;;;;;;16.29;78.14;151746.19;1735954;82;21024;-63
2022/05/28 02:12:49;;;;;;;5.05;2.83;;;;;;;16.28;78.29;151744.91;1737002;81;21041;-63
2022/05/28 02:15:37;;;;;;;3.62;2.58;;;;;;;16.32;78.35;151755.33;1735175;82;21477;-64
2022/05/28 02:18:27;;;;;;;3.22;2.30;;;;;;;16.33;78.24;151757.94;1737395;82;21113;-62
2022/05/28 02:21:10;;;;;;;4.28;2.70;;;;;;;16.36;78.43;151763.14;1735867;82;21469;-64
2022/05/28 02:23:47;;;;;;;3.05;2.20;;;;;;;16.41;78.13;151776.16;1737415;82;21029;-64
2022/05/28 02:26:31;;;;;;;5.28;2.40;;;;;;;16.41;78.33;151776.16;1735745;82;21048;-65
2022/05/28 02:29:00;;;;;;;4.35;2.62;;;;;;;16.44;78.13;151783.97;1737573;82;20966;-62
2022/05/28 02:31:32;;;;;;;3.27;2.52;;;;;;;16.43;78.33;151782.69;1735726;82;21482;-63
2022/05/28 02:33:59;;;;;;;3.30;2.65;;;;;;;16.47;78.36;151791.83;1706258;84;21085;-63
2022/05/28 02:36:27;;;;;;;3.55;2.20;;;;;;;16.50;78.28;151799.64;1706321;84;21041;-62
2022/05/28 02:38:54;;;;;;;5.08;2.45;;;;;;;16.56;78.48;151813.94;1704949;84;21056;-62
2022/05/28 02:41:21;;;;;;;3.12;2.55;;;;;;;16.65;78.12;151836.09;1705021;84;21063;-62
2022/05/28 02:43:48;;;;;;;3.08;2.40;;;;;;;16.66;78.04;151838.70;1704736;84;22175;-62
2022/05/28 02:46:15;;;;;;;2.98;2.55;;;;;;;16.67;78.06;151841.31;1702541;84;21043;-63
2022/05/28 02:48:43;;;;;;;3.25;2.60;;;;;;;16.70;77.96;151849.17;1674235;85;21129;-62
2022/05/28 02:51:14;;;;;;;4.40;2.40;;;;;;;16.71;78.17;151851.77;1702503;84;21081;-63
2022/05/28 02:53:41;;;;;;;3.45;2.45;;;;;;;16.77;78.09;151867.41;1706419;84;21498;-63
2022/05/28 02:56:09;;;;;;;4.22;2.90;;;;;;;16.79;78.11;151872.59;1702766;84;21960;-63
2022/05/28 02:58:38;;;;;;;3.47;2.70;;;;;;;16.83;78.15;151883.03;1702382;84;21036;-63
2022/05/28 03:01:27;;;;;;;6.72;2.80;;;;;;;16.87;78.16;151893.44;1706555;84;21500;-63
2022/05/28 03:03:54;;;;;;;2.95;2.58;;;;;;;16.93;78.21;151907.78;1702425;84;21105;-63
2022/05/28 03:06:22;;;;;;;3.17;2.52;;;;;;;17.01;78.10;151927.41;1702745;84;21066;-63
2022/05/28 03:08:49;;;;;;;3.05;2.50;;;;;;;17.06;78.01;151940.42;1718022;82;21308;-63
2022/05/28 03:11:16;;;;;;;4.20;2.70;;;;;;;17.15;78.09;151963.92;1733159;82;21022;-63
2022/05/28 03:13:44;;;;;;;4.97;3.08;;;;;;;17.26;77.72;151989.97;1737456;82;21111;-69
2022/05/28 03:16:11;;;;;;;6.25;2.80;;;;;;;17.31;77.56;152003.00;1733286;81;21098;-62
2022/05/28 03:18:38;;;;;;;5.65;2.80;;;;;;;17.39;77.56;152023.89;1737238;81;21028;-62
2022/05/28 03:21:05;;;;;;;3.20;2.90;;;;;;;17.48;77.34;152046.05;1733167;82;21244;-62
2022/05/28 03:23:33;;;;;;;4.15;2.70;;;;;;;17.60;77.34;152076.05;1736801;82;21082;-62
2022/05/28 03:26:21;;;;;;;3.42;2.60;;;;;;;17.76;77.02;152117.73;1733488;82;21444;-61
2022/05/28 03:28:51;;;;;;;3.85;2.90;;;;;;;17.89;76.60;152149.06;1737654;82;21020;-62
2022/05/28 03:31:19;;;;;;;3.33;2.60;;;;;;;18.06;76.44;152190.86;1733480;82;21055;-62
2022/05/28 03:33:46;;;;;;;7.72;3.02;;;;;;;18.21;75.73;152229.97;1737320;82;21241;-61
2022/05/28 03:36:12;;;;;;;4.70;2.80;;;;;;;18.28;75.44;152248.25;1733510;82;21096;-62
2022/05/28 03:38:40;;;;;;;9.08;2.80;;;;;;;18.40;75.31;152276.94;1733384;82;21150;-62
2022/05/28 03:41:07;;;;;;;7.15;3.10;;;;;;;18.52;75.13;152308.27;1733503;82;21051;-62
2022/05/28 03:43:36;;;;;;;5.25;3.02;;;;;;;18.65;74.95;152340.89;1733302;82;20997;-63
2022/05/28 03:46:03;;;;;;;7.12;3.25;;;;;;;18.83;74.72;152386.55;1737337;82;21297;-62
2022/05/28 03:48:31;;;;;;;3.90;3.00;;;;;;;18.98;74.39;152423.11;1738269;82;21015;-63
2022/05/28 03:50:59;;;;;;;6.08;3.25;;;;;;;19.10;74.28;152454.45;1738951;82;21086;-63
2022/05/28 03:53:26;;;;;;;5.00;3.20;;;;;;;19.26;74.14;152494.95;1715533;82;21077;-62
2022/05/28 03:55:53;;;;;;;5.10;3.15;;;;;;;19.38;74.04;152524.98;1709332;84;21084;-63
2022/05/28 03:58:20;;;;;;;7.37;2.85;;;;;;;19.52;74.14;152558.91;1709309;84;21277;-63
2022/05/28 04:00:47;;;;;;;4.85;3.10;;;;;;;19.69;73.80;152603.30;1709650;84;21474;-62
2022/05/28 04:03:15;;;;;;;5.50;4.12;;;;;;;19.83;73.55;152637.28;1709446;84;21084;-62
2022/05/28 04:05:43;;;;;;;5.33;3.40;;;;;;;19.97;73.52;152672.58;1709063;84;21060;-63
2022/05/28 04:08:11;;;;;;;4.37;3.47;;;;;;;20.15;73.02;152719.59;1712423;82;21081;-62
2022/05/28 04:10:38;;;;;;;6.85;4.00;;;;;;;20.26;72.81;152747.03;1738915;82;22184;-63
2022/05/28 04:13:07;;;;;;;4.10;3.33;;;;;;;20.41;72.74;152783.58;1739014;82;21079;-64
2022/05/28 04:15:34;;;;;;;4.65;3.60;;;;;;;20.61;72.29;152834.56;1738863;82;21032;-63
2022/05/28 04:18:01;;;;;;;5.47;3.42;;;;;;;20.77;71.76;152875.05;1738815;82;21055;-63
2022/05/28 04:20:29;;;;;;;4.75;3.72;;;;;;;20.92;71.44;152912.98;1738928;82;21099;-64
2022/05/28 04:22:56;;;;;;;6.28;3.55;;;;;;;21.10;70.83;152958.70;1738952;82;21226;-64
2022/05/28 04:25:23;;;;;;;4.37;3.20;;;;;;;21.22;70.61;152987.48;1738671;82;21103;-64
2022/05/28 04:27:50;;;;;;;7.65;3.77;;;;;;;21.38;70.25;153029.33;1738894;82;21532;-63
2022/05/28 04:30:17;;;;;;;5.00;3.40;;;;;;;21.55;69.48;153072.45;1739108;82;21012;-63
2022/05/28 04:32:44;;;;;;;5.20;3.85;;;;;;;21.70;68.98;153110.41;1738984;82;21010;-62
2022/05/28 04:35:12;;;;;;;3.95;3.55;;;;;;;21.86;68.55;153149.66;1739516;82;21221;-63
2022/05/28 04:37:40;;;;;;;11.12;3.72;;;;;;;22.00;68.16;153186.28;1708095;84;21062;-63
2022/05/28 04:40:09;;;;;;;6.12;4.03;;;;;;;22.15;67.49;153222.86;1739452;82;21467;-62
2022/05/28 04:42:36;;;;;;;4.90;3.80;;;;;;;22.24;66.93;153245.09;1739443;81;21056;-63
2022/05/28 04:45:07;;;;;;;5.58;3.70;;;;;;;22.33;66.13;153269.95;1708611;84;21487;-62
2022/05/28 04:47:34;;;;;;;5.25;3.70;;;;;;;22.31;65.39;153263.39;1737024;82;21227;-62
2022/05/28 04:50:04;;;;;;;4.97;3.30;;;;;;;22.06;65.12;153199.34;1734453;82;21455;-62
2022/05/28 04:52:32;;;;;;;4.15;3.65;;;;;;;21.92;65.73;153165.31;1734401;82;21534;-61
2022/05/28 04:54:59;;;;;;;6.00;3.95;;;;;;;21.90;65.76;153160.09;1734523;82;21009;-62
2022/05/28 04:57:26;;;;;;;7.97;4.08;;;;;;;21.88;65.73;153154.88;1734257;82;21047;-62
2022/05/28 04:59:52;;;;;;;5.10;4.30;;;;;;;21.85;65.65;153147.03;1734005;82;21474;-61
2022/05/28 05:02:19;;;;;;;5.37;4.10;;;;;;;21.78;65.78;153128.75;1734791;82;21562;-62
2022/05/28 05:04:46;;;;;;;5.10;3.90;;;;;;;21.77;66.20;153126.08;1764479;81;21058;-62
2022/05/28 05:07:14;;;;;;;7.17;4.08;;;;;;;21.83;66.10;153141.81;1764488;81;21111;-64
2022/05/28 05:09:41;;;;;;;7.37;4.50;;;;;;;21.81;65.77;153137.86;1765340;81;21246;-63
2022/05/28 05:12:09;;;;;;;6.37;4.40;;;;;;;21.80;66.43;153133.97;1765352;81;21140;-68
2022/05/28 05:14:36;;;;;;;8.08;4.72;;;;;;;21.80;66.74;153133.97;1704577;84;21101;-65
2022/05/28 05:17:04;;;;;;;6.33;4.62;;;;;;;21.84;66.70;153144.42;1704717;84;21405;-68
2022/05/28 05:19:32;;;;;;;7.30;4.78;;;;;;;21.81;67.10;153136.58;1704646;84;21074;-70
2022/05/28 05:21:59;;;;;;;10.15;4.60;;;;;;;21.62;67.40;153089.45;1704906;84;21069;-68
2022/05/28 05:24:26;;;;;;;6.83;3.90;;;;;;;21.51;67.73;153062.00;1705011;83;22051;-67
2022/05/28 05:26:53;;;;;;;6.12;4.20;;;;;;;21.49;67.66;153055.45;1704997;83;21019;-69
2022/05/28 05:29:20;;;;;;;7.37;4.60;;;;;;;21.47;67.35;153051.55;1704826;83;21082;-67
2022/05/28 05:31:47;;;;;;;6.35;4.15;;;;;;;21.45;66.23;153047.61;1708871;82;21046;-68
2022/05/28 05:34:14;;;;;;;5.35;4.17;;;;;;;21.29;66.82;153005.78;1736654;82;21011;-69
2022/05/28 05:36:42;;;;;;;5.53;4.17;;;;;;;21.24;66.89;152994.05;1736046;82;21489;-68
2022/05/28 05:39:09;;;;;;;7.75;4.05;;;;;;;21.18;67.25;152979.66;1766846;81;20995;-67
2022/05/28 05:41:41;;;;;;;8.25;3.75;;;;;;;21.17;67.37;152975.70;1767088;81;21068;-69
2022/05/28 05:44:08;;;;;;;5.78;3.65;;;;;;;21.20;67.05;152983.55;1736242;82;21042;-69
2022/05/28 05:46:41;;;;;;;6.25;3.70;;;;;;;21.20;66.66;152982.27;1767207;81;21059;-67
2022/05/28 05:49:09;;;;;;;5.17;3.75;;;;;;;21.31;65.95;153011.00;1769428;81;21257;-69
2022/05/28 05:51:40;;;;;;;5.37;3.60;;;;;;;21.34;65.65;153018.88;1769957;81;21020;-69
2022/05/28 05:54:08;;;;;;;8.65;3.77;;;;;;;21.47;65.55;153052.83;1769823;81;21063;-67
2022/05/28 05:56:35;;;;;;;8.18;3.45;;;;;;;21.63;64.37;153090.73;1769896;81;21068;-69
2022/05/28 05:59:02;;;;;;;5.72;3.30;;;;;;;21.70;64.15;153109.13;1733794;82;21110;-68
2022/05/28 06:01:29;;;;;;;3.60;3.30;;;;;;;21.81;63.18;153136.58;1737672;82;21225;-66
2022/05/28 06:03:56;;;;;;;4.33;3.27;;;;;;;21.88;62.42;153154.88;1702929;82;21039;-68
2022/05/28 06:06:24;;;;;;;6.30;3.25;;;;;;;21.98;62.20;153181.00;1733749;82;21020;-68
2022/05/28 06:08:51;;;;;;;5.87;3.22;;;;;;;22.13;61.74;153217.63;1737649;82;21067;-68
2022/05/28 06:11:18;;;;;;;8.25;3.80;;;;;;;22.20;60.68;153235.92;1733307;82;21039;-66
2022/05/28 06:13:45;;;;;;;7.85;3.65;;;;;;;22.27;60.25;153254.27;1737525;82;21306;-68
2022/05/28 06:16:12;;;;;;;6.50;3.50;;;;;;;22.40;60.09;153285.62;1733593;82;21075;-68
2022/05/28 06:18:39;;;;;;;4.58;3.65;;;;;;;22.53;59.78;153318.37;1737968;82;21012;-67
2022/05/28 06:21:07;;;;;;;6.15;3.35;;;;;;;22.75;59.30;153375.94;1734085;82;21049;-67
2022/05/28 06:23:34;;;;;;;5.30;3.02;;;;;;;22.97;58.60;153430.87;1737765;82;21011;-69
2022/05/28 06:26:04;;;;;;;4.42;3.17;;;;;;;23.22;57.65;153492.41;1733559;82;21202;-63
2022/05/28 06:28:32;;;;;;;12.70;3.35;;;;;;;23.40;56.79;153539.58;1732865;82;21174;-63
2022/05/28 06:31:05;;;;;;;6.28;3.15;;;;;;;23.50;56.47;153564.44;1736992;82;21616;-63
2022/05/28 06:33:33;;;;;;;8.03;3.22;;;;;;;23.65;55.79;153602.39;1728767;81;21021;-62
2022/05/28 06:36:04;;;;;;;7.80;3.02;;;;;;;23.74;54.92;153625.94;1767893;81;20955;-63
2022/05/28 06:38:31;;;;;;;5.30;3.08;;;;;;;23.72;54.53;153620.70;1768507;81;21452;-62
2022/05/28 06:40:59;;;;;;;5.37;2.95;;;;;;;23.79;54.39;153636.45;1767889;81;20971;-62
2022/05/28 06:43:27;;;;;;;4.95;3.10;;;;;;;23.97;54.05;153682.25;1768322;81;21039;-63
2022/05/28 06:45:54;;;;;;;6.53;3.12;;;;;;;24.15;53.33;153729.44;1768177;81;21051;-63
2022/05/28 06:48:22;;;;;;;7.12;3.50;;;;;;;24.25;53.26;153752.98;1763485;81;21072;-62
2022/05/28 06:51:04;;;;;;;5.67;3.40;;;;;;;24.40;53.42;153790.95;1757098;80;22812;-64
2022/05/28 06:53:38;;;;;;;4.45;3.35;;;;;;;24.59;53.24;153840.72;1757135;81;21012;-62
2022/05/28 06:56:05;;;;;;;5.92;3.20;;;;;;;24.74;52.69;153878.70;1757685;81;21020;-62
2022/05/28 06:58:33;;;;;;;7.80;3.47;;;;;;;24.91;52.36;153919.39;1757220;81;21389;-64
2022/05/28 07:01:02;;;;;;;4.47;3.58;;;;;;;25.05;52.13;153956.03;1756992;81;20983;-63
2022/05/28 07:03:30;;;;;;;13.75;4.17;;;;;;;25.12;51.96;153974.41;1757341;81;21166;-63
2022/05/28 07:05:57;;;;;;;6.90;3.62;;;;;;;25.14;52.05;153979.66;1757586;81;20980;-63
2022/05/28 07:08:26;;;;;;;7.75;3.90;;;;;;;25.25;51.81;154007.16;1758996;80;21528;-63
2022/05/28 07:10:58;;;;;;;5.22;4.20;;;;;;;25.32;51.50;154024.20;1704622;84;21497;-63
2022/05/28 07:13:27;;;;;;;5.35;3.83;;;;;;;25.31;51.56;154021.53;1704792;83;21081;-63
2022/05/28 07:15:54;;;;;;;4.47;3.50;;;;;;;25.27;51.41;154012.41;1705262;84;21210;-64
2022/05/28 07:18:22;;;;;;;5.70;4.33;;;;;;;25.28;51.19;154013.69;1704897;83;21026;-63
2022/05/28 07:20:49;;;;;;;9.28;4.62;;;;;;;25.24;51.26;154003.22;1704756;84;21010;-63
2022/05/28 07:23:22;;;;;;;7.03;4.08;;;;;;;25.22;51.32;153997.97;1704688;83;21495;-63
2022/05/28 07:25:53;;;;;;;8.80;4.30;;;;;;;25.18;51.10;153990.13;1704814;84;21529;-64
2022/05/28 07:28:25;;;;;;;6.08;4.70;;;;;;;25.12;51.10;153974.41;1679350;84;21783;-64
2022/05/28 07:30:58;;;;;;;6.37;5.08;;;;;;;25.00;51.56;153942.95;1704975;83;21476;-62
2022/05/28 07:33:25;;;;;;;6.62;5.20;;;;;;;24.95;51.95;153929.86;1729475;82;22097;-62
2022/05/28 07:35:54;;;;;;;7.22;4.75;;;;;;;24.95;52.17;153929.86;1736334;82;20928;-64
2022/05/28 07:38:22;;;;;;;9.93;5.30;;;;;;;24.93;52.24;153924.63;1736467;82;21055;-63
2022/05/28 07:40:50;;;;;;;6.12;5.33;;;;;;;24.81;52.47;153895.78;1735893;82;21267;-63
2022/05/28 07:43:17;;;;;;;8.80;5.58;;;;;;;24.77;52.77;153885.31;1766651;81;21027;-63
2022/05/28 07:45:45;;;;;;;9.68;5.97;;;;;;;24.78;52.42;153887.94;1766960;81;21019;-63
2022/05/28 07:48:13;;;;;;;8.95;5.60;;;;;;;24.70;52.59;153868.23;1736551;82;21482;-63
2022/05/28 07:50:40;;;;;;;7.17;5.85;;;;;;;24.65;52.83;153855.14;1770134;81;21007;-63
2022/05/28 07:53:07;;;;;;;10.50;5.70;;;;;;;24.66;52.80;153857.77;1769757;81;22124;-63
2022/05/28 07:55:35;;;;;;;8.30;5.90;;;;;;;24.70;52.93;153866.95;1770232;81;21052;-63
2022/05/28 07:58:12;;;;;;;8.45;6.53;;;;;;;24.71;52.96;153869.56;1739005;82;21048;-62
2022/05/28 08:00:44;;;;;;;9.63;6.83;;;;;;;24.72;53.14;153873.47;1770352;81;20952;-63
2022/05/28 08:03:11;;;;;;;7.03;6.30;;;;;;;24.71;52.89;153870.84;1769710;81;21457;-62
2022/05/28 08:05:39;;;;;;;7.25;6.45;;;;;;;24.60;53.12;153843.34;1738797;82;21215;-61
2022/05/28 08:08:07;;;;;;;9.50;6.28;;;;;;;24.52;53.52;153821.08;1769996;81;21035;-63
2022/05/28 08:10:34;;;;;;;11.12;6.58;;;;;;;24.48;53.63;153810.61;1768496;81;21099;-62
2022/05/28 08:13:07;;;;;;;8.20;6.53;;;;;;;24.41;53.81;153793.56;1768212;81;21078;-62
2022/05/28 08:15:39;;;;;;;14.15;6.35;;;;;;;24.30;54.25;153767.41;1768622;81;20991;-63
2022/05/28 08:18:06;;;;;;;10.72;5.67;;;;;;;24.23;54.68;153749.09;1707995;84;21036;-63
2022/05/28 08:23:20;;;;;;;6.70;4.97;;;;;;;24.02;55.89;153695.38;1707357;83;21045;-63
2022/05/28 08:25:48;;;;;;;7.42;5.53;;;;;;;24.04;56.27;153700.61;1707724;83;21154;-61
2022/05/28 08:28:17;;;;;;;5.83;5.15;;;;;;;24.07;56.08;153707.19;1707710;83;21061;-63
2022/05/28 08:30:45;;;;;;;9.13;5.70;;;;;;;24.05;56.12;153701.95;1707767;83;21484;-62
2022/05/28 08:33:14;;;;;;;10.18;5.67;;;;;;;24.06;56.19;153704.56;1729866;82;21075;-67
2022/05/28 08:35:42;;;;;;;7.97;5.53;;;;;;;24.07;55.83;153707.19;1739244;82;21059;-69
2022/05/28 08:38:18;;;;;;;6.97;5.58;;;;;;;23.99;55.93;153688.81;1739822;82;21098;-69
2022/05/28 08:41:03;;;;;;;7.62;5.97;;;;;;;23.98;55.99;153686.16;1739314;82;21027;-67
2022/05/28 08:43:36;;;;;;;6.47;5.83;;;;;;;24.06;55.67;153704.56;1722459;82;21648;-67
2022/05/28 08:46:04;;;;;;;12.20;5.83;;;;;;;24.09;55.35;153713.69;1739362;82;20920;-67
2022/05/28 08:48:47;;;;;;;6.58;5.47;;;;;;;24.08;55.38;153709.80;1738820;81;21120;-65
2022/05/28 08:51:34;;;;;;;8.65;6.22;;;;;;;24.07;55.39;153707.19;1726109;82;21036;-69
2022/05/28 08:54:11;;;;;;;11.60;6.28;;;;;;;24.06;55.44;153704.56;1770133;81;21035;-68
2022/05/28 08:56:38;;;;;;;8.18;6.05;;;;;;;24.05;55.32;153703.23;1770181;81;21241;-66
2022/05/28 08:59:10;;;;;;;7.50;5.05;;;;;;;24.10;55.28;153715.03;1738937;82;21536;-68
2022/05/28 09:01:39;;;;;;;8.20;4.90;;;;;;;24.06;54.78;153705.84;1770315;81;21520;-68
2022/05/28 09:04:10;;;;;;;5.30;4.45;;;;;;;24.09;54.12;153712.41;1770315;81;20960;-67
2022/05/28 09:06:49;;;;;;;5.70;4.53;;;;;;;24.13;53.63;153722.88;1769896;81;21067;-68
2022/05/28 09:09:16;;;;;;;7.20;4.17;;;;;;;24.12;53.50;153720.25;1770802;81;21103;-68
2022/05/28 09:11:59;;;;;;;11.18;5.30;;;;;;;24.08;52.72;153709.80;1770466;81;21366;-67
2022/05/28 09:14:33;;;;;;;10.08;5.78;;;;;;;24.08;53.01;153709.80;1743679;81;21042;-67
2022/05/28 09:17:07;;;;;;;7.40;4.12;;;;;;;24.15;53.36;153728.11;1770499;81;21390;-69
2022/05/28 09:19:41;;;;;;;7.40;4.10;;;;;;;24.17;52.25;153733.34;1770710;81;21011;-69
2022/05/28 09:22:08;;;;;;;4.17;3.77;;;;;;;24.14;51.68;153726.83;1770470;81;21240;-67
2022/05/28 09:24:36;;;;;;;5.03;4.08;;;;;;;24.14;51.52;153726.83;1770119;81;21413;-68
2022/05/28 09:27:20;;;;;;;6.30;4.05;;;;;;;24.15;51.33;153728.11;1770314;81;20996;-69
2022/05/28 09:30:10;;;;;;;7.27;3.90;;;;;;;24.13;51.67;153722.88;1739483;82;21478;-67
2022/05/28 09:33:29;;;;;;;6.30;3.58;;;;;;;24.22;51.79;153746.47;1755363;79;21211;-62
2022/05/28 09:36:11;;;;;;;6.95;3.80;;;;;;;24.25;50.96;153752.98;1739373;82;21168;-62
2022/05/28 09:39:02;;;;;;;4.62;3.45;;;;;;;24.24;50.45;153751.70;1739342;82;21046;-62
2022/05/28 09:41:55;;;;;;;6.15;3.42;;;;;;;24.23;50.32;153747.75;1685790;84;21077;-68
2022/05/28 09:44:34;;;;;;;7.58;3.25;;;;;;;24.22;50.41;153745.14;1739118;82;21102;-69
2022/05/28 09:47:11;;;;;;;8.05;3.70;;;;;;;24.32;50.54;153771.36;1738949;82;20947;-68
2022/05/28 09:49:57;;;;;;;7.10;2.90;;;;;;;24.39;49.80;153788.34;1737263;81;21515;-69
2022/05/28 09:52:31;;;;;;;7.78;2.70;;;;;;;24.32;49.40;153772.64;1735869;82;21114;-69
2022/05/28 09:55:16;;;;;;;4.58;2.90;;;;;;;24.40;48.85;153792.28;1736176;82;21059;-67
2022/05/28 09:58:01;;;;;;;5.05;3.00;;;;;;;24.49;47.91;153814.56;1736236;82;20951;-67
2022/05/28 10:00:28;;;;;;;7.25;3.00;;;;;;;24.49;47.94;153814.56;1736387;82;21034;-61
2022/05/28 10:05:49;;;;;;;7.78;3.05;;;;;;;24.40;47.90;153790.95;1736217;82;21441;-61
2022/05/28 10:08:16;;;;;;;6.95;3.20;;;;;;;24.29;48.30;153764.78;1740387;81;21086;-61
2022/05/28 10:10:55;;;;;;;8.15;3.30;;;;;;;24.26;48.42;153756.94;1704801;84;21494;-62
2022/05/28 10:13:25;;;;;;;4.90;3.30;;;;;;;24.27;48.67;153759.56;1704722;83;21093;-62
2022/05/28 10:15:57;;;;;;;7.55;3.20;;;;;;;24.22;48.63;153746.47;1704901;83;21528;-62
2022/05/28 10:18:31;;;;;;;2.52;2.33;;;;;;;24.15;48.18;153728.11;1704787;83;21003;-62
2022/05/28 10:21:16;;;;;;;8.13;2.92;;;;;;;24.11;48.15;153717.64;1704926;83;21016;-63
2022/05/28 10:24:04;;;;;;;5.78;3.27;;;;;;;24.09;48.55;153712.41;1704735;83;21436;-63
2022/05/28 10:26:36;;;;;;;3.47;3.17;;;;;;;24.07;49.77;153708.47;1704944;83;21057;-63
2022/05/28 10:29:06;;;;;;;10.43;4.10;;;;;;;24.13;50.80;153722.88;1704977;84;21206;-62
2022/05/28 10:31:40;;;;;;;8.00;3.90;;;;;;;24.23;51.22;153747.75;1705545;82;21089;-64
2022/05/28 10:34:07;;;;;;;7.28;3.92;;;;;;;24.24;51.59;153751.70;1736150;82;21020;-64
2022/05/28 10:36:36;;;;;;;5.92;3.90;;;;;;;24.24;51.94;153751.70;1735557;82;21112;-61
2022/05/28 10:39:13;;;;;;;6.92;3.62;;;;;;;24.28;52.16;153760.84;1767880;81;21023;-62
2022/05/28 10:41:42;;;;;;;4.00;3.42;;;;;;;24.28;52.05;153762.17;1766905;81;21225;-62
2022/05/28 10:44:12;;;;;;;5.08;3.75;;;;;;;24.27;52.27;153759.56;1735899;82;22011;-62
2022/05/28 10:46:55;;;;;;;3.83;3.42;;;;;;;24.29;52.66;153764.78;1766340;81;21070;-62
2022/05/28 10:49:57;;;;;;;4.70;3.65;;;;;;;24.28;52.68;153760.84;1766787;81;21083;-62
2022/05/28 10:52:54;;;;;;;7.65;3.95;;;;;;;24.31;52.20;153770.03;1766894;81;21035;-63
2022/05/28 10:55:32;;;;;;;5.03;3.92;;;;;;;24.34;52.25;153775.25;1766796;81;21316;-62
2022/05/28 10:58:13;;;;;;;5.80;3.75;;;;;;;24.28;52.71;153760.84;1767140;81;20953;-63
2022/05/28 11:00:57;;;;;;;5.50;3.15;;;;;;;24.26;52.73;153755.61;1767258;81;21021;-63
2022/05/28 11:04:19;;;;;;;9.38;3.40;;;;;;;24.22;52.42;153746.47;1767016;81;21744;-62
2022/05/28 11:07:19;;;;;;;4.35;3.95;;;;;;;24.13;53.03;153724.22;1749273;82;21087;-64
2022/05/28 11:09:56;;;;;;;4.28;3.87;;;;;;;24.13;53.32;153724.22;1765176;81;20944;-63
2022/05/28 11:12:48;;;;;;;5.17;4.15;;;;;;;24.10;53.41;153715.03;1767094;81;21039;-63
2022/05/28 11:15:48;;;;;;;4.10;3.52;;;;;;;24.03;53.78;153699.33;1767033;81;21055;-63
2022/05/28 11:18:47;;;;;;;6.87;3.67;;;;;;;24.02;54.05;153695.38;1767049;81;21000;-63
2022/05/28 11:21:31;;;;;;;6.35;3.98;;;;;;;23.99;54.30;153688.81;1767112;81;21106;-63
2022/05/28 11:24:36;;;;;;;5.87;3.70;;;;;;;23.95;54.08;153678.31;1767060;81;21243;-64
2022/05/28 11:27:24;;;;;;;4.47;3.45;;;;;;;23.86;54.43;153654.75;1767126;81;20924;-63
2022/05/28 11:30:18;;;;;;;6.58;4.00;;;;;;;23.80;55.11;153640.34;1766931;81;21047;-63
2022/05/28 11:33:06;;;;;;;6.70;3.72;;;;;;;23.77;55.11;153631.22;1735803;82;21579;-63
2022/05/28 11:35:50;;;;;;;6.47;3.50;;;;;;;23.66;55.01;153605.02;1676255;85;21029;-63
2022/05/28 11:38:49;;;;;;;4.87;3.58;;;;;;;23.50;55.70;153563.11;1676351;85;21878;-63
2022/05/28 11:41:55;;;;;;;5.45;3.85;;;;;;;23.45;55.99;153552.66;1676139;85;21072;-64
2022/05/28 11:44:44;;;;;;;5.20;3.80;;;;;;;23.40;55.69;153539.58;1676280;85;21032;-63
2022/05/28 11:47:16;;;;;;;5.00;3.67;;;;;;;23.23;56.14;153495.02;1676395;85;21119;-64
2022/05/28 11:52:42;;;;;;;6.28;3.45;;;;;;;23.08;57.10;153458.36;1703791;83;21556;-63
2022/05/28 11:55:17;;;;;;;6.33;3.90;;;;;;;23.01;57.89;153440.06;1708276;84;21072;-64
2022/05/28 11:57:52;;;;;;;4.72;3.70;;;;;;;23.03;58.51;153445.28;1704173;84;21051;-62